sensor_id;sensor_type;location;lat;lon;timestamp;pressure;altitude;pressure_sealevel;temperature;humidity
48774;BME280;34576;0.000;0.000;2024-03-02T00:00:50;95465.25;;;17.09;63.61
48774;BME280;34576;0.000;0.000;2024-03-02T00:07:55;95464.66;;;17.12;63.30
48774;BME280;34576;0.000;0.000;2024-03-02T00:14:58;95461.91;;;17.17;63.44
48774;BME280;34576;0.000;0.000;2024-03-02T00:22:02;95458.44;;;17.17;63.89
48774;BME280;34576;0.000;0.000;2024-03-02T00:29:03;95454.09;;;17.21;63.81
48774;BME280;34576;0.000;0.000;2024-03-02T00:36:03;95460.69;;;17.23;63.65
48774;BME280;34576;0.000;0.000;2024-03-02T00:43:04;95458.50;;;17.25;64.38
48774;BME280;34576;0.000;0.000;2024-03-02T00:50:05;95462.75;;;17.27;64.23
48774;BME280;34576;0.000;0.000;2024-03-02T00:57:05;95466.69;;;17.29;64.66
48774;BME280;34576;0.000;0.000;2024-03-02T01:04:10;95460.94;;;17.36;64.57
48774;BME280;34576;0.000;0.000;2024-03-02T01:11:10;95453.09;;;17.31;65.55
48774;BME280;34576;0.000;0.000;2024-03-02T01:18:10;95460.75;;;17.32;65.33
48774;BME280;34576;0.000;0.000;2024-03-02T01:25:10;95452.47;;;17.34;65.47
48774;BME280;34576;0.000;0.000;2024-03-02T01:32:11;95461.44;;;17.38;65.62
48774;BME280;34576;0.000;0.000;2024-03-02T01:39:11;95453.44;;;17.38;65.55
48774;BME280;34576;0.000;0.000;2024-03-02T01:46:12;95446.75;;;17.40;65.66
48774;BME280;34576;0.000;0.000;2024-03-02T01:53:12;95464.56;;;17.40;65.02
48774;BME280;34576;0.000;0.000;2024-03-02T02:00:12;95450.19;;;17.41;64.84
48774;BME280;34576;0.000;0.000;2024-03-02T02:07:13;95452.84;;;17.41;64.70
48774;BME280;34576;0.000;0.000;2024-03-02T02:14:14;95447.53;;;17.41;64.62
48774;BME280;34576;0.000;0.000;2024-03-02T02:21:14;95438.47;;;17.42;64.67
48774;BME280;34576;0.000;0.000;2024-03-02T02:28:15;95425.50;;;17.40;64.95
48774;BME280;34576;0.000;0.000;2024-03-02T02:35:15;95427.06;;;17.41;64.91
48774;BME280;34576;0.000;0.000;2024-03-02T02:42:15;95420.03;;;17.46;65.11
48774;BME280;34576;0.000;0.000;2024-03-02T02:49:15;95416.13;;;17.43;65.69
48774;BME280;34576;0.000;0.000;2024-03-02T02:56:16;95396.91;;;17.46;65.47
48774;BME280;34576;0.000;0.000;2024-03-02T03:03:16;95394.56;;;17.45;64.99
48774;BME280;34576;0.000;0.000;2024-03-02T03:10:16;95388.44;;;17.44;64.48
48774;BME280;34576;0.000;0.000;2024-03-02T03:17:17;95394.88;;;17.43;64.45
48774;BME280;34576;0.000;0.000;2024-03-02T03:24:17;95389.25;;;17.45;64.04
48774;BME280;34576;0.000;0.000;2024-03-02T03:31:17;95387.84;;;17.47;63.82
48774;BME280;34576;0.000;0.000;2024-03-02T03:38:18;95387.25;;;17.50;64.79
48774;BME280;34576;0.000;0.000;2024-03-02T03:45:18;95383.72;;;17.64;64.38
48774;BME280;34576;0.000;0.000;2024-03-02T03:52:18;95389.59;;;17.52;65.79
48774;BME280;34576;0.000;0.000;2024-03-02T03:59:18;95392.56;;;17.50;65.97
48774;BME280;34576;0.000;0.000;2024-03-02T04:06:19;95384.59;;;17.50;65.94
48774;BME280;34576;0.000;0.000;2024-03-02T04:13:19;95392.56;;;17.50;65.73
48774;BME280;34576;0.000;0.000;2024-03-02T04:20:20;95394.91;;;17.52;65.69
48774;BME280;34576;0.000;0.000;2024-03-02T04:27:20;95403.19;;;17.50;65.86
48774;BME280;34576;0.000;0.000;2024-03-02T04:34:20;95410.56;;;17.53;66.23
48774;BME280;34576;0.000;0.000;2024-03-02T04:41:20;95406.31;;;17.52;66.08
48774;BME280;34576;0.000;0.000;2024-03-02T04:48:21;95405.84;;;17.50;65.96
48774;BME280;34576;0.000;0.000;2024-03-02T04:55:22;95420.41;;;17.53;66.10
48774;BME280;34576;0.000;0.000;2024-03-02T05:02:45;95428.22;;;17.49;66.10
48774;BME280;34576;0.000;0.000;2024-03-02T05:09:45;95415.22;;;17.48;65.65
48774;BME280;34576;0.000;0.000;2024-03-02T05:16:46;95413.84;;;17.50;65.21
48774;BME280;34576;0.000;0.000;2024-03-02T05:23:46;95416.19;;;17.52;65.62
48774;BME280;34576;0.000;0.000;2024-03-02T05:30:46;95420.34;;;17.44;65.53
48774;BME280;34576;0.000;0.000;2024-03-02T05:37:47;95417.06;;;17.47;65.56
48774;BME280;34576;0.000;0.000;2024-03-02T05:44:47;95416.00;;;17.48;65.16
48774;BME280;34576;0.000;0.000;2024-03-02T05:51:48;95420.03;;;17.46;65.58
48774;BME280;34576;0.000;0.000;2024-03-02T05:58:48;95429.78;;;17.50;65.30
48774;BME280;34576;0.000;0.000;2024-03-02T06:06:07;95422.13;;;17.49;65.34
48774;BME280;34576;0.000;0.000;2024-03-02T06:13:07;95427.59;;;17.52;65.59
48774;BME280;34576;0.000;0.000;2024-03-02T06:20:07;95418.84;;;17.52;66.56
48774;BME280;34576;0.000;0.000;2024-03-02T06:27:08;95405.03;;;17.27;62.71
48774;BME280;34576;0.000;0.000;2024-03-02T06:34:08;95396.66;;;17.11;54.97
48774;BME280;34576;0.000;0.000;2024-03-02T06:41:09;95414.56;;;14.71;52.72
48774;BME280;34576;0.000;0.000;2024-03-02T06:48:09;95412.22;;;14.21;50.29
48774;BME280;34576;0.000;0.000;2024-03-02T06:55:09;95415.03;;;14.06;48.29
48774;BME280;34576;0.000;0.000;2024-03-02T07:02:09;95425.00;;;13.55;47.28
48774;BME280;34576;0.000;0.000;2024-03-02T07:09:10;95438.06;;;13.41;47.22
48774;BME280;34576;0.000;0.000;2024-03-02T07:16:11;95438.06;;;13.71;47.12
48774;BME280;34576;0.000;0.000;2024-03-02T07:23:31;95438.56;;;13.43;46.87
48774;BME280;34576;0.000;0.000;2024-03-02T07:30:32;95427.91;;;14.85;46.69
48774;BME280;34576;0.000;0.000;2024-03-02T07:37:32;95414.78;;;15.84;48.17
48774;BME280;34576;0.000;0.000;2024-03-02T07:44:32;95408.16;;;16.00;49.94
48774;BME280;34576;0.000;0.000;2024-03-02T07:51:33;95415.31;;;16.14;51.12
48774;BME280;34576;0.000;0.000;2024-03-02T07:58:33;95405.59;;;16.23;52.19
48774;BME280;34576;0.000;0.000;2024-03-02T08:05:34;95412.38;;;16.29;53.07
48774;BME280;34576;0.000;0.000;2024-03-02T08:12:34;95402.47;;;16.35;53.72
48774;BME280;34576;0.000;0.000;2024-03-02T08:19:35;95401.28;;;16.41;54.09
48774;BME280;34576;0.000;0.000;2024-03-02T08:26:35;95404.41;;;16.43;55.11
48774;BME280;34576;0.000;0.000;2024-03-02T08:33:36;95399.00;;;16.48;55.34
48774;BME280;34576;0.000;0.000;2024-03-02T08:40:36;95395.28;;;16.49;55.87
48774;BME280;34576;0.000;0.000;2024-03-02T08:47:36;95383.28;;;16.52;56.29
48774;BME280;34576;0.000;0.000;2024-03-02T08:54:37;95386.03;;;16.61;56.31
48774;BME280;34576;0.000;0.000;2024-03-02T09:01:37;95375.09;;;16.62;56.48
48774;BME280;34576;0.000;0.000;2024-03-02T09:08:41;95378.44;;;16.68;56.56
48774;BME280;34576;0.000;0.000;2024-03-02T09:15:42;95382.75;;;16.64;56.08
48774;BME280;34576;0.000;0.000;2024-03-02T09:22:42;95388.56;;;16.66;54.95
48774;BME280;34576;0.000;0.000;2024-03-02T09:29:42;95371.53;;;16.67;54.51
48774;BME280;34576;0.000;0.000;2024-03-02T09:36:43;95371.16;;;16.73;53.78
48774;BME280;34576;0.000;0.000;2024-03-02T09:43:43;95371.16;;;16.73;53.81
48774;BME280;34576;0.000;0.000;2024-03-02T09:50:44;95356.19;;;16.78;53.85
48774;BME280;34576;0.000;0.000;2024-03-02T09:57:45;95350.69;;;16.74;53.86
48774;BME280;34576;0.000;0.000;2024-03-02T10:04:48;95346.94;;;16.75;52.69
48774;BME280;34576;0.000;0.000;2024-03-02T10:11:48;95338.88;;;16.80;52.21
48774;BME280;34576;0.000;0.000;2024-03-02T10:18:49;95333.06;;;16.78;51.96
48774;BME280;34576;0.000;0.000;2024-03-02T10:25:49;95319.69;;;16.83;52.09
48774;BME280;34576;0.000;0.000;2024-03-02T10:32:49;95320.94;;;16.86;52.96
48774;BME280;34576;0.000;0.000;2024-03-02T10:39:50;95317.44;;;16.90;52.97
48774;BME280;34576;0.000;0.000;2024-03-02T10:46:52;95308.34;;;16.91;53.57
48774;BME280;34576;0.000;0.000;2024-03-02T10:53:54;95299.31;;;16.93;53.67
48774;BME280;34576;0.000;0.000;2024-03-02T11:00:54;95294.19;;;16.96;53.86
48774;BME280;34576;0.000;0.000;2024-03-02T11:08:08;95285.91;;;16.98;54.22
48774;BME280;34576;0.000;0.000;2024-03-02T11:15:10;95279.53;;;16.99;54.46
48774;BME280;34576;0.000;0.000;2024-03-02T11:22:10;95276.72;;;17.04;54.50
48774;BME280;34576;0.000;0.000;2024-03-02T11:29:33;95270.81;;;17.07;54.95
48774;BME280;34576;0.000;0.000;2024-03-02T11:36:31;95263.78;;;17.11;54.97
48774;BME280;34576;0.000;0.000;2024-03-02T11:43:32;95252.09;;;17.12;55.06
48774;BME280;34576;0.000;0.000;2024-03-02T11:50:33;95242.72;;;17.15;55.15
48774;BME280;34576;0.000;0.000;2024-03-02T11:57:34;95239.75;;;17.16;55.71
48774;BME280;34576;0.000;0.000;2024-03-02T12:04:34;95225.88;;;17.19;55.55
48774;BME280;34576;0.000;0.000;2024-03-02T12:11:37;95221.03;;;17.21;55.85
48774;BME280;34576;0.000;0.000;2024-03-02T12:18:38;95206.66;;;17.22;56.19
48774;BME280;34576;0.000;0.000;2024-03-02T12:25:38;95205.56;;;17.23;55.89
48774;BME280;34576;0.000;0.000;2024-03-02T12:32:38;95194.44;;;17.21;56.48
48774;BME280;34576;0.000;0.000;2024-03-02T12:39:39;95187.75;;;17.24;56.28
48774;BME280;34576;0.000;0.000;2024-03-02T12:46:39;95180.41;;;17.30;56.42
48774;BME280;34576;0.000;0.000;2024-03-02T12:53:40;95176.69;;;17.31;56.54
48774;BME280;34576;0.000;0.000;2024-03-02T13:00:40;95166.03;;;17.31;56.68
48774;BME280;34576;0.000;0.000;2024-03-02T13:07:40;95149.03;;;17.32;56.80
48774;BME280;34576;0.000;0.000;2024-03-02T13:14:48;95144.16;;;17.34;56.80
48774;BME280;34576;0.000;0.000;2024-03-02T13:21:48;95147.59;;;17.34;57.19
48774;BME280;34576;0.000;0.000;2024-03-02T13:28:50;95141.19;;;17.35;57.06
48774;BME280;34576;0.000;0.000;2024-03-02T13:35:51;95138.84;;;17.34;57.31
48774;BME280;34576;0.000;0.000;2024-03-02T13:42:52;95129.63;;;17.31;57.48
48774;BME280;34576;0.000;0.000;2024-03-02T13:49:54;95121.63;;;17.31;57.61
48774;BME280;34576;0.000;0.000;2024-03-02T13:56:54;95108.03;;;17.33;57.59
48774;BME280;34576;0.000;0.000;2024-03-02T14:03:54;95101.19;;;17.32;57.71
48774;BME280;34576;0.000;0.000;2024-03-02T14:10:55;95100.06;;;17.33;57.48
48774;BME280;34576;0.000;0.000;2024-03-02T14:18:01;95106.50;;;17.32;57.60
48774;BME280;34576;0.000;0.000;2024-03-02T14:25:01;95111.31;;;17.30;57.38
48774;BME280;34576;0.000;0.000;2024-03-02T14:32:01;95102.88;;;17.28;57.40
48774;BME280;34576;0.000;0.000;2024-03-02T14:39:03;95101.00;;;17.28;57.20
48774;BME280;34576;0.000;0.000;2024-03-02T14:46:04;95097.56;;;17.28;56.89
48774;BME280;34576;0.000;0.000;2024-03-02T14:53:04;95095.22;;;17.26;56.43
48774;BME280;34576;0.000;0.000;2024-03-02T15:00:07;95093.66;;;17.25;56.22
48774;BME280;34576;0.000;0.000;2024-03-02T15:07:07;95096.31;;;17.25;55.94
48774;BME280;34576;0.000;0.000;2024-03-02T15:14:08;95072.41;;;17.25;56.26
48774;BME280;34576;0.000;0.000;2024-03-02T15:21:08;95076.94;;;17.24;56.10
48774;BME280;34576;0.000;0.000;2024-03-02T15:28:08;95054.09;;;17.23;56.25
48774;BME280;34576;0.000;0.000;2024-03-02T15:35:08;95055.69;;;17.24;56.11
48774;BME280;34576;0.000;0.000;2024-03-02T15:42:09;95033.31;;;17.25;56.05
48774;BME280;34576;0.000;0.000;2024-03-02T15:49:10;95027.38;;;17.29;56.33
48774;BME280;34576;0.000;0.000;2024-03-02T15:56:10;95013.94;;;17.25;56.40
48774;BME280;34576;0.000;0.000;2024-03-02T16:03:10;95004.56;;;17.28;56.32
48774;BME280;34576;0.000;0.000;2024-03-02T16:10:11;94993.44;;;17.25;56.50
48774;BME280;34576;0.000;0.000;2024-03-02T16:17:11;94986.59;;;17.24;56.60
48774;BME280;34576;0.000;0.000;2024-03-02T16:24:11;94975.97;;;17.24;56.53
48774;BME280;34576;0.000;0.000;2024-03-02T16:31:12;94977.81;;;17.24;56.38
48774;BME280;34576;0.000;0.000;2024-03-02T16:38:15;94990.31;;;17.23;56.36
48774;BME280;34576;0.000;0.000;2024-03-02T16:45:15;95003.94;;;17.22;56.37
48774;BME280;34576;0.000;0.000;2024-03-02T16:52:16;95011.09;;;17.21;56.30
48774;BME280;34576;0.000;0.000;2024-03-02T16:59:17;95009.25;;;17.22;56.70
48774;BME280;34576;0.000;0.000;2024-03-02T17:06:17;95003.13;;;17.21;56.74
48774;BME280;34576;0.000;0.000;2024-03-02T17:13:17;94998.94;;;17.20;56.80
48774;BME280;34576;0.000;0.000;2024-03-02T17:20:17;95003.13;;;17.21;56.84
48774;BME280;34576;0.000;0.000;2024-03-02T17:27:18;95008.44;;;17.21;56.60
48774;BME280;34576;0.000;0.000;2024-03-02T17:34:19;95014.88;;;17.20;56.83
48774;BME280;34576;0.000;0.000;2024-03-02T17:41:19;95028.16;;;17.20;56.79
48774;BME280;34576;0.000;0.000;2024-03-02T17:48:19;95020.97;;;17.21;56.83
48774;BME280;34576;0.000;0.000;2024-03-02T17:55:21;95023.94;;;17.19;56.96
48774;BME280;34576;0.000;0.000;2024-03-02T18:02:22;95020.97;;;17.21;56.74
48774;BME280;34576;0.000;0.000;2024-03-02T18:09:23;95012.53;;;17.19;56.69
48774;BME280;34576;0.000;0.000;2024-03-02T18:16:23;95006.41;;;17.18;56.70
48774;BME280;34576;0.000;0.000;2024-03-02T18:23:23;94995.78;;;17.18;56.85
48774;BME280;34576;0.000;0.000;2024-03-02T18:30:24;94989.69;;;17.18;56.64
48774;BME280;34576;0.000;0.000;2024-03-02T18:37:24;94972.19;;;17.17;56.92
48774;BME280;34576;0.000;0.000;2024-03-02T18:44:24;94959.69;;;17.17;56.98
48774;BME280;34576;0.000;0.000;2024-03-02T18:51:24;94958.44;;;17.15;57.06
48774;BME280;34576;0.000;0.000;2024-03-02T18:58:25;94942.81;;;17.13;57.45
48774;BME280;34576;0.000;0.000;2024-03-02T19:05:25;94942.81;;;17.13;57.58
48774;BME280;34576;0.000;0.000;2024-03-02T19:12:26;94932.19;;;17.13;57.57
48774;BME280;34576;0.000;0.000;2024-03-02T19:19:26;94935.63;;;17.14;57.69
48774;BME280;34576;0.000;0.000;2024-03-02T19:26:26;94943.59;;;17.14;57.62
48774;BME280;34576;0.000;0.000;2024-03-02T19:33:27;94954.84;;;17.11;57.63
48774;BME280;34576;0.000;0.000;2024-03-02T19:40:27;94973.13;;;17.12;57.64
48774;BME280;34576;0.000;0.000;2024-03-02T19:47:27;94982.50;;;17.18;57.74
48774;BME280;34576;0.000;0.000;2024-03-02T19:54:29;94979.06;;;17.09;57.87
48774;BME280;34576;0.000;0.000;2024-03-02T20:01:29;94988.44;;;17.15;57.74
48774;BME280;34576;0.000;0.000;2024-03-02T20:08:29;95010.31;;;17.12;57.84
48774;BME280;34576;0.000;0.000;2024-03-02T20:15:30;95005.78;;;17.13;57.84
48774;BME280;34576;0.000;0.000;2024-03-02T20:22:30;95001.09;;;17.10;58.02
48774;BME280;34576;0.000;0.000;2024-03-02T20:29:30;95001.84;;;17.10;57.93
48774;BME280;34576;0.000;0.000;2024-03-02T20:36:31;95000.94;;;17.06;58.06
48774;BME280;34576;0.000;0.000;2024-03-02T20:43:31;95000.78;;;17.20;57.87
48774;BME280;34576;0.000;0.000;2024-03-02T20:50:32;94969.84;;;17.24;58.09
48774;BME280;34576;0.000;0.000;2024-03-02T20:57:32;94961.56;;;17.25;58.27
48774;BME280;34576;0.000;0.000;2024-03-02T21:04:32;94949.84;;;17.27;58.20
48774;BME280;34576;0.000;0.000;2024-03-02T21:11:33;94930.16;;;17.28;58.44
48774;BME280;34576;0.000;0.000;2024-03-02T21:18:33;94914.66;;;17.30;58.51
48774;BME280;34576;0.000;0.000;2024-03-02T21:25:36;94917.00;;;17.31;58.54
48774;BME280;34576;0.000;0.000;2024-03-02T21:32:36;94923.13;;;17.32;58.88
48774;BME280;34576;0.000;0.000;2024-03-02T21:39:37;94916.38;;;17.34;58.71
48774;BME280;34576;0.000;0.000;2024-03-02T21:46:37;94890.91;;;17.42;58.32
48774;BME280;34576;0.000;0.000;2024-03-02T21:53:38;94904.66;;;17.35;59.40
48774;BME280;34576;0.000;0.000;2024-03-02T22:00:38;94902.94;;;17.39;59.92
48774;BME280;34576;0.000;0.000;2024-03-02T22:07:38;94898.41;;;17.40;60.09
48774;BME280;34576;0.000;0.000;2024-03-02T22:14:39;94892.47;;;17.43;61.07
48774;BME280;34576;0.000;0.000;2024-03-02T22:21:39;94885.28;;;17.43;61.29
48774;BME280;34576;0.000;0.000;2024-03-02T22:28:39;94874.97;;;17.42;61.48
48774;BME280;34576;0.000;0.000;2024-03-02T22:35:40;94870.91;;;17.45;61.48
48774;BME280;34576;0.000;0.000;2024-03-02T22:42:40;94871.34;;;17.47;62.00
48774;BME280;34576;0.000;0.000;2024-03-02T22:49:40;94864.63;;;17.49;62.27
48774;BME280;34576;0.000;0.000;2024-03-02T22:56:41;94861.81;;;17.54;62.38
48774;BME280;34576;0.000;0.000;2024-03-02T23:03:41;94868.34;;;17.57;62.98
48774;BME280;34576;0.000;0.000;2024-03-02T23:10:42;94863.34;;;17.55;63.27
48774;BME280;34576;0.000;0.000;2024-03-02T23:17:42;94866.50;;;17.57;63.53
48774;BME280;34576;0.000;0.000;2024-03-02T23:24:42;94871.50;;;17.59;63.29
48774;BME280;34576;0.000;0.000;2024-03-02T23:31:42;94871.94;;;17.61;63.40
48774;BME280;34576;0.000;0.000;2024-03-02T23:38:43;94877.09;;;17.66;64.39
48774;BME280;34576;0.000;0.000;2024-03-02T23:45:43;94873.03;;;17.69;64.37
48774;BME280;34576;0.000;0.000;2024-03-02T23:52:43;94873.03;;;17.69;64.52
48774;BME280;34576;0.000;0.000;2024-03-02T23:59:44;94863.16;;;17.69;64.52
